sensor_id;sensor_type;location;lat;lon;timestamp;temperature;humidity
3298;DHT22;1661;53.572;10.174;2023-08-06T00:00:32;19.00;77.70
3298;DHT22;1661;53.572;10.174;2023-08-06T00:02:58;19.00;78.10
3298;DHT22;1661;53.572;10.174;2023-08-06T00:05:25;19.00;78.60
3298;DHT22;1661;53.572;10.174;2023-08-06T00:07:52;19.00;78.60
3298;DHT22;1661;53.572;10.174;2023-08-06T00:10:19;19.00;78.70
3298;DHT22;1661;53.572;10.174;2023-08-06T00:12:46;19.00;78.80
3298;DHT22;1661;53.572;10.174;2023-08-06T00:15:13;19.00;79.50
3298;DHT22;1661;53.572;10.174;2023-08-06T00:17:41;18.90;80.00
3298;DHT22;1661;53.572;10.174;2023-08-06T00:20:08;18.80;80.20
3298;DHT22;1661;53.572;10.174;2023-08-06T00:22:36;18.60;81.10
3298;DHT22;1661;53.572;10.174;2023-08-06T00:25:04;18.50;81.80
3298;DHT22;1661;53.572;10.174;2023-08-06T00:27:31;18.50;82.00
3298;DHT22;1661;53.572;10.174;2023-08-06T00:29:58;18.50;82.00
3298;DHT22;1661;53.572;10.174;2023-08-06T00:32:25;18.50;81.90
3298;DHT22;1661;53.572;10.174;2023-08-06T00:34:53;18.50;82.30
3298;DHT22;1661;53.572;10.174;2023-08-06T00:37:20;18.50;82.10
3298;DHT22;1661;53.572;10.174;2023-08-06T00:39:46;18.50;82.20
3298;DHT22;1661;53.572;10.174;2023-08-06T00:42:13;18.50;82.70
3298;DHT22;1661;53.572;10.174;2023-08-06T00:44:41;18.40;83.10
3298;DHT22;1661;53.572;10.174;2023-08-06T00:47:08;18.40;83.50
3298;DHT22;1661;53.572;10.174;2023-08-06T00:49:36;18.30;83.60
3298;DHT22;1661;53.572;10.174;2023-08-06T00:52:06;18.30;83.40
3298;DHT22;1661;53.572;10.174;2023-08-06T00:54:34;18.30;83.60
3298;DHT22;1661;53.572;10.174;2023-08-06T00:57:01;18.30;83.50
3298;DHT22;1661;53.572;10.174;2023-08-06T00:59:32;18.30;83.40
3298;DHT22;1661;53.572;10.174;2023-08-06T01:01:58;18.40;83.30
3298;DHT22;1661;53.572;10.174;2023-08-06T01:04:25;18.40;83.10
3298;DHT22;1661;53.572;10.174;2023-08-06T01:06:59;18.40;83.30
3298;DHT22;1661;53.572;10.174;2023-08-06T01:09:35;18.40;83.50
3298;DHT22;1661;53.572;10.174;2023-08-06T01:12:18;18.40;83.60
3298;DHT22;1661;53.572;10.174;2023-08-06T01:14:53;18.40;83.40
3298;DHT22;1661;53.572;10.174;2023-08-06T01:17:25;18.40;83.10
3298;DHT22;1661;53.572;10.174;2023-08-06T01:19:53;18.40;83.10
3298;DHT22;1661;53.572;10.174;2023-08-06T01:22:21;18.40;83.20
3298;DHT22;1661;53.572;10.174;2023-08-06T01:24:50;18.40;83.50
3298;DHT22;1661;53.572;10.174;2023-08-06T01:27:24;18.40;83.60
3298;DHT22;1661;53.572;10.174;2023-08-06T01:29:59;18.40;83.70
3298;DHT22;1661;53.572;10.174;2023-08-06T01:32:30;18.40;83.70
3298;DHT22;1661;53.572;10.174;2023-08-06T01:35:00;18.40;83.90
3298;DHT22;1661;53.572;10.174;2023-08-06T01:37:28;18.40;83.50
3298;DHT22;1661;53.572;10.174;2023-08-06T01:39:55;18.40;83.50
3298;DHT22;1661;53.572;10.174;2023-08-06T01:42:22;18.30;83.30
3298;DHT22;1661;53.572;10.174;2023-08-06T01:44:49;18.30;83.40
3298;DHT22;1661;53.572;10.174;2023-08-06T01:47:16;18.30;83.50
3298;DHT22;1661;53.572;10.174;2023-08-06T01:49:42;18.30;83.30
3298;DHT22;1661;53.572;10.174;2023-08-06T01:52:09;18.30;83.30
3298;DHT22;1661;53.572;10.174;2023-08-06T01:54:37;18.30;83.70
3298;DHT22;1661;53.572;10.174;2023-08-06T01:57:05;18.30;83.50
3298;DHT22;1661;53.572;10.174;2023-08-06T01:59:31;18.30;83.90
3298;DHT22;1661;53.572;10.174;2023-08-06T02:01:59;18.30;83.80
3298;DHT22;1661;53.572;10.174;2023-08-06T02:04:25;18.30;83.70
3298;DHT22;1661;53.572;10.174;2023-08-06T02:06:52;18.30;83.70
3298;DHT22;1661;53.572;10.174;2023-08-06T02:09:19;18.30;83.60
3298;DHT22;1661;53.572;10.174;2023-08-06T02:11:47;18.30;83.30
3298;DHT22;1661;53.572;10.174;2023-08-06T02:14:14;18.30;83.20
3298;DHT22;1661;53.572;10.174;2023-08-06T02:16:41;18.20;83.30
3298;DHT22;1661;53.572;10.174;2023-08-06T02:19:07;18.20;83.20
3298;DHT22;1661;53.572;10.174;2023-08-06T02:21:34;18.20;83.10
3298;DHT22;1661;53.572;10.174;2023-08-06T02:24:02;18.20;83.40
3298;DHT22;1661;53.572;10.174;2023-08-06T02:26:28;18.20;83.30
3298;DHT22;1661;53.572;10.174;2023-08-06T02:28:57;18.20;83.00
3298;DHT22;1661;53.572;10.174;2023-08-06T02:31:23;18.20;82.90
3298;DHT22;1661;53.572;10.174;2023-08-06T02:33:50;18.20;83.10
3298;DHT22;1661;53.572;10.174;2023-08-06T02:36:17;18.20;83.30
3298;DHT22;1661;53.572;10.174;2023-08-06T02:38:44;18.20;83.20
3298;DHT22;1661;53.572;10.174;2023-08-06T02:41:10;18.10;83.30
3298;DHT22;1661;53.572;10.174;2023-08-06T02:43:37;18.10;83.60
3298;DHT22;1661;53.572;10.174;2023-08-06T02:46:05;18.10;83.80
3298;DHT22;1661;53.572;10.174;2023-08-06T02:48:32;18.10;83.70
3298;DHT22;1661;53.572;10.174;2023-08-06T02:50:59;18.10;83.60
3298;DHT22;1661;53.572;10.174;2023-08-06T02:53:26;18.10;83.80
3298;DHT22;1661;53.572;10.174;2023-08-06T02:55:53;18.10;83.60
3298;DHT22;1661;53.572;10.174;2023-08-06T02:58:20;18.10;83.60
3298;DHT22;1661;53.572;10.174;2023-08-06T03:00:59;18.00;83.40
3298;DHT22;1661;53.572;10.174;2023-08-06T03:03:27;18.00;83.80
3298;DHT22;1661;53.572;10.174;2023-08-06T03:05:54;18.00;83.90
3298;DHT22;1661;53.572;10.174;2023-08-06T03:08:21;18.00;84.00
3298;DHT22;1661;53.572;10.174;2023-08-06T03:10:48;18.00;83.80
3298;DHT22;1661;53.572;10.174;2023-08-06T03:13:15;18.00;83.60
3298;DHT22;1661;53.572;10.174;2023-08-06T03:15:42;18.00;83.50
3298;DHT22;1661;53.572;10.174;2023-08-06T03:18:09;18.00;83.30
3298;DHT22;1661;53.572;10.174;2023-08-06T03:20:37;18.00;82.90
3298;DHT22;1661;53.572;10.174;2023-08-06T03:23:03;18.00;82.70
3298;DHT22;1661;53.572;10.174;2023-08-06T03:25:30;17.90;82.90
3298;DHT22;1661;53.572;10.174;2023-08-06T03:27:57;17.90;82.60
3298;DHT22;1661;53.572;10.174;2023-08-06T03:30:24;17.90;82.40
3298;DHT22;1661;53.572;10.174;2023-08-06T03:32:50;17.80;82.20
3298;DHT22;1661;53.572;10.174;2023-08-06T03:35:17;17.80;82.40
3298;DHT22;1661;53.572;10.174;2023-08-06T03:37:45;17.80;82.40
3298;DHT22;1661;53.572;10.174;2023-08-06T03:40:12;17.80;82.50
3298;DHT22;1661;53.572;10.174;2023-08-06T03:42:39;17.80;82.70
3298;DHT22;1661;53.572;10.174;2023-08-06T03:45:07;17.80;82.90
3298;DHT22;1661;53.572;10.174;2023-08-06T03:47:34;17.80;82.90
3298;DHT22;1661;53.572;10.174;2023-08-06T03:50:01;17.80;82.90
3298;DHT22;1661;53.572;10.174;2023-08-06T03:52:27;17.70;82.90
3298;DHT22;1661;53.572;10.174;2023-08-06T03:54:55;17.70;82.60
3298;DHT22;1661;53.572;10.174;2023-08-06T03:57:22;17.70;82.40
3298;DHT22;1661;53.572;10.174;2023-08-06T03:59:49;17.70;82.50
3298;DHT22;1661;53.572;10.174;2023-08-06T04:02:16;17.60;82.60
3298;DHT22;1661;53.572;10.174;2023-08-06T04:04:43;17.60;82.60
3298;DHT22;1661;53.572;10.174;2023-08-06T04:07:09;17.60;82.80
3298;DHT22;1661;53.572;10.174;2023-08-06T04:09:56;17.60;83.00
3298;DHT22;1661;53.572;10.174;2023-08-06T04:12:23;17.60;83.10
3298;DHT22;1661;53.572;10.174;2023-08-06T04:14:50;17.60;83.00
3298;DHT22;1661;53.572;10.174;2023-08-06T04:17:17;17.60;83.10
3298;DHT22;1661;53.572;10.174;2023-08-06T04:19:46;17.60;83.00
3298;DHT22;1661;53.572;10.174;2023-08-06T04:22:13;17.50;83.20
3298;DHT22;1661;53.572;10.174;2023-08-06T04:24:41;17.50;83.10
3298;DHT22;1661;53.572;10.174;2023-08-06T04:27:10;17.50;83.00
3298;DHT22;1661;53.572;10.174;2023-08-06T04:29:37;17.50;83.00
3298;DHT22;1661;53.572;10.174;2023-08-06T04:32:05;17.50;82.90
3298;DHT22;1661;53.572;10.174;2023-08-06T04:34:32;17.50;82.90
3298;DHT22;1661;53.572;10.174;2023-08-06T04:36:59;17.50;82.70
3298;DHT22;1661;53.572;10.174;2023-08-06T04:39:26;17.40;82.90
3298;DHT22;1661;53.572;10.174;2023-08-06T04:41:53;17.40;82.90
3298;DHT22;1661;53.572;10.174;2023-08-06T04:44:21;17.40;83.00
3298;DHT22;1661;53.572;10.174;2023-08-06T04:46:48;17.40;83.10
3298;DHT22;1661;53.572;10.174;2023-08-06T04:49:15;17.40;83.20
3298;DHT22;1661;53.572;10.174;2023-08-06T04:51:41;17.40;83.30
3298;DHT22;1661;53.572;10.174;2023-08-06T04:54:08;17.40;83.80
3298;DHT22;1661;53.572;10.174;2023-08-06T04:56:35;17.40;83.80
3298;DHT22;1661;53.572;10.174;2023-08-06T04:59:02;17.40;83.80
3298;DHT22;1661;53.572;10.174;2023-08-06T05:01:30;17.40;83.70
3298;DHT22;1661;53.572;10.174;2023-08-06T05:03:56;17.40;83.70
3298;DHT22;1661;53.572;10.174;2023-08-06T05:06:23;17.40;83.90
3298;DHT22;1661;53.572;10.174;2023-08-06T05:08:50;17.40;83.90
3298;DHT22;1661;53.572;10.174;2023-08-06T05:11:17;17.40;84.10
3298;DHT22;1661;53.572;10.174;2023-08-06T05:13:43;17.40;84.00
3298;DHT22;1661;53.572;10.174;2023-08-06T05:16:10;17.40;83.80
3298;DHT22;1661;53.572;10.174;2023-08-06T05:18:38;17.40;84.00
3298;DHT22;1661;53.572;10.174;2023-08-06T05:21:06;17.40;83.90
3298;DHT22;1661;53.572;10.174;2023-08-06T05:23:33;17.40;84.20
3298;DHT22;1661;53.572;10.174;2023-08-06T05:26:00;17.50;84.20
3298;DHT22;1661;53.572;10.174;2023-08-06T05:28:26;17.50;84.30
3298;DHT22;1661;53.572;10.174;2023-08-06T05:30:53;17.50;84.30
3298;DHT22;1661;53.572;10.174;2023-08-06T05:33:20;17.50;84.30
3298;DHT22;1661;53.572;10.174;2023-08-06T05:35:49;17.60;84.30
3298;DHT22;1661;53.572;10.174;2023-08-06T05:38:16;17.60;84.40
3298;DHT22;1661;53.572;10.174;2023-08-06T05:40:43;17.60;84.60
3298;DHT22;1661;53.572;10.174;2023-08-06T05:43:10;17.70;84.80
3298;DHT22;1661;53.572;10.174;2023-08-06T05:45:36;17.70;84.90
3298;DHT22;1661;53.572;10.174;2023-08-06T05:48:03;17.70;84.70
3298;DHT22;1661;53.572;10.174;2023-08-06T05:50:30;17.80;84.50
3298;DHT22;1661;53.572;10.174;2023-08-06T05:52:58;17.80;84.40
3298;DHT22;1661;53.572;10.174;2023-08-06T05:55:25;17.80;84.40
3298;DHT22;1661;53.572;10.174;2023-08-06T05:57:52;17.80;83.90
3298;DHT22;1661;53.572;10.174;2023-08-06T06:00:19;17.80;84.40
3298;DHT22;1661;53.572;10.174;2023-08-06T06:02:46;17.80;84.10
3298;DHT22;1661;53.572;10.174;2023-08-06T06:05:13;17.80;83.90
3298;DHT22;1661;53.572;10.174;2023-08-06T06:07:39;17.90;84.10
3298;DHT22;1661;53.572;10.174;2023-08-06T06:10:08;17.90;84.30
3298;DHT22;1661;53.572;10.174;2023-08-06T06:12:35;17.90;84.10
3298;DHT22;1661;53.572;10.174;2023-08-06T06:15:03;17.90;84.30
3298;DHT22;1661;53.572;10.174;2023-08-06T06:17:29;18.00;84.30
3298;DHT22;1661;53.572;10.174;2023-08-06T06:19:56;18.00;84.10
3298;DHT22;1661;53.572;10.174;2023-08-06T06:22:23;18.00;84.50
3298;DHT22;1661;53.572;10.174;2023-08-06T06:24:50;18.00;84.40
3298;DHT22;1661;53.572;10.174;2023-08-06T06:27:18;18.00;84.50
3298;DHT22;1661;53.572;10.174;2023-08-06T06:29:45;18.00;84.40
3298;DHT22;1661;53.572;10.174;2023-08-06T06:32:11;18.00;84.20
3298;DHT22;1661;53.572;10.174;2023-08-06T06:34:38;18.00;84.00
3298;DHT22;1661;53.572;10.174;2023-08-06T06:37:05;18.10;83.80
3298;DHT22;1661;53.572;10.174;2023-08-06T06:39:32;18.10;84.00
3298;DHT22;1661;53.572;10.174;2023-08-06T06:41:59;18.10;84.20
3298;DHT22;1661;53.572;10.174;2023-08-06T06:44:27;18.20;84.20
3298;DHT22;1661;53.572;10.174;2023-08-06T06:46:54;18.20;84.20
3298;DHT22;1661;53.572;10.174;2023-08-06T06:49:21;18.30;83.70
3298;DHT22;1661;53.572;10.174;2023-08-06T06:51:47;18.30;83.70
3298;DHT22;1661;53.572;10.174;2023-08-06T06:54:14;18.30;83.70
3298;DHT22;1661;53.572;10.174;2023-08-06T06:56:42;18.40;84.00
3298;DHT22;1661;53.572;10.174;2023-08-06T06:59:08;18.40;83.90
3298;DHT22;1661;53.572;10.174;2023-08-06T07:01:36;18.40;83.70
3298;DHT22;1661;53.572;10.174;2023-08-06T07:04:03;18.50;83.60
3298;DHT22;1661;53.572;10.174;2023-08-06T07:06:30;18.50;83.80
3298;DHT22;1661;53.572;10.174;2023-08-06T07:08:57;18.50;84.00
3298;DHT22;1661;53.572;10.174;2023-08-06T07:11:24;18.60;84.00
3298;DHT22;1661;53.572;10.174;2023-08-06T07:13:56;18.60;83.60
3298;DHT22;1661;53.572;10.174;2023-08-06T07:16:23;18.70;83.50
3298;DHT22;1661;53.572;10.174;2023-08-06T07:18:53;18.70;83.70
3298;DHT22;1661;53.572;10.174;2023-08-06T07:21:21;18.80;83.80
3298;DHT22;1661;53.572;10.174;2023-08-06T07:23:47;18.80;83.70
3298;DHT22;1661;53.572;10.174;2023-08-06T07:26:15;18.90;84.00
3298;DHT22;1661;53.572;10.174;2023-08-06T07:28:42;18.90;84.00
3298;DHT22;1661;53.572;10.174;2023-08-06T07:31:10;18.90;84.40
3298;DHT22;1661;53.572;10.174;2023-08-06T07:33:36;18.90;84.00
3298;DHT22;1661;53.572;10.174;2023-08-06T07:36:10;18.90;83.70
3298;DHT22;1661;53.572;10.174;2023-08-06T07:38:37;19.00;83.60
3298;DHT22;1661;53.572;10.174;2023-08-06T07:41:04;19.00;83.80
3298;DHT22;1661;53.572;10.174;2023-08-06T07:43:31;19.10;84.10
3298;DHT22;1661;53.572;10.174;2023-08-06T07:45:58;19.10;83.90
3298;DHT22;1661;53.572;10.174;2023-08-06T07:48:26;19.10;84.10
3298;DHT22;1661;53.572;10.174;2023-08-06T07:50:53;19.20;84.00
3298;DHT22;1661;53.572;10.174;2023-08-06T07:53:21;19.20;83.60
3298;DHT22;1661;53.572;10.174;2023-08-06T07:55:50;19.20;83.30
3298;DHT22;1661;53.572;10.174;2023-08-06T07:58:17;19.20;83.50
3298;DHT22;1661;53.572;10.174;2023-08-06T08:00:44;19.20;83.40
3298;DHT22;1661;53.572;10.174;2023-08-06T08:03:11;19.10;83.20
3298;DHT22;1661;53.572;10.174;2023-08-06T08:05:38;19.10;83.20
3298;DHT22;1661;53.572;10.174;2023-08-06T08:08:05;19.20;83.30
3298;DHT22;1661;53.572;10.174;2023-08-06T08:10:34;19.20;83.50
3298;DHT22;1661;53.572;10.174;2023-08-06T08:13:02;19.30;83.70
3298;DHT22;1661;53.572;10.174;2023-08-06T08:15:30;19.30;83.70
3298;DHT22;1661;53.572;10.174;2023-08-06T08:17:57;19.40;83.00
3298;DHT22;1661;53.572;10.174;2023-08-06T08:20:24;19.40;82.60
3298;DHT22;1661;53.572;10.174;2023-08-06T08:22:53;19.40;82.80
3298;DHT22;1661;53.572;10.174;2023-08-06T08:25:19;19.40;82.80
3298;DHT22;1661;53.572;10.174;2023-08-06T08:27:47;19.40;82.40
3298;DHT22;1661;53.572;10.174;2023-08-06T08:30:14;19.50;82.20
3298;DHT22;1661;53.572;10.174;2023-08-06T08:32:41;19.50;82.60
3298;DHT22;1661;53.572;10.174;2023-08-06T08:35:08;19.50;82.70
3298;DHT22;1661;53.572;10.174;2023-08-06T08:37:38;19.50;83.20
3298;DHT22;1661;53.572;10.174;2023-08-06T08:40:06;19.40;83.20
3298;DHT22;1661;53.572;10.174;2023-08-06T08:42:33;19.40;83.50
3298;DHT22;1661;53.572;10.174;2023-08-06T08:45:01;19.50;83.80
3298;DHT22;1661;53.572;10.174;2023-08-06T08:47:28;19.50;83.70
3298;DHT22;1661;53.572;10.174;2023-08-06T08:49:56;19.50;83.50
3298;DHT22;1661;53.572;10.174;2023-08-06T08:52:24;19.50;83.30
3298;DHT22;1661;53.572;10.174;2023-08-06T08:54:53;19.60;82.90
3298;DHT22;1661;53.572;10.174;2023-08-06T08:57:20;19.60;83.00
3298;DHT22;1661;53.572;10.174;2023-08-06T08:59:47;19.60;83.00
3298;DHT22;1661;53.572;10.174;2023-08-06T09:02:16;19.60;82.80
3298;DHT22;1661;53.572;10.174;2023-08-06T09:04:44;19.60;83.10
3298;DHT22;1661;53.572;10.174;2023-08-06T09:07:17;19.60;82.70
3298;DHT22;1661;53.572;10.174;2023-08-06T09:09:48;19.60;82.80
3298;DHT22;1661;53.572;10.174;2023-08-06T09:12:16;19.60;82.90
3298;DHT22;1661;53.572;10.174;2023-08-06T09:14:43;19.60;82.60
3298;DHT22;1661;53.572;10.174;2023-08-06T09:17:10;19.60;82.80
3298;DHT22;1661;53.572;10.174;2023-08-06T09:19:41;19.60;83.00
3298;DHT22;1661;53.572;10.174;2023-08-06T09:22:12;19.70;83.20
3298;DHT22;1661;53.572;10.174;2023-08-06T09:24:39;19.70;83.20
3298;DHT22;1661;53.572;10.174;2023-08-06T09:27:10;19.70;82.80
3298;DHT22;1661;53.572;10.174;2023-08-06T09:29:40;19.70;82.70
3298;DHT22;1661;53.572;10.174;2023-08-06T09:32:08;19.60;83.00
3298;DHT22;1661;53.572;10.174;2023-08-06T09:34:35;19.60;83.40
3298;DHT22;1661;53.572;10.174;2023-08-06T09:37:03;19.50;83.90
3298;DHT22;1661;53.572;10.174;2023-08-06T09:39:30;19.50;84.40
3298;DHT22;1661;53.572;10.174;2023-08-06T09:41:58;19.50;84.50
3298;DHT22;1661;53.572;10.174;2023-08-06T09:44:26;19.50;84.70
3298;DHT22;1661;53.572;10.174;2023-08-06T09:46:54;19.50;85.00
3298;DHT22;1661;53.572;10.174;2023-08-06T09:49:26;19.60;85.00
3298;DHT22;1661;53.572;10.174;2023-08-06T09:51:54;19.60;85.10
3298;DHT22;1661;53.572;10.174;2023-08-06T09:54:25;19.60;84.70
3298;DHT22;1661;53.572;10.174;2023-08-06T09:57:01;19.60;84.80
3298;DHT22;1661;53.572;10.174;2023-08-06T09:59:28;19.60;85.00
3298;DHT22;1661;53.572;10.174;2023-08-06T10:01:55;19.60;84.60
3298;DHT22;1661;53.572;10.174;2023-08-06T10:04:23;19.60;84.20
3298;DHT22;1661;53.572;10.174;2023-08-06T10:06:50;19.50;83.60
3298;DHT22;1661;53.572;10.174;2023-08-06T10:09:17;19.40;83.70
3298;DHT22;1661;53.572;10.174;2023-08-06T10:11:49;19.40;83.70
3298;DHT22;1661;53.572;10.174;2023-08-06T10:14:22;19.40;83.70
3298;DHT22;1661;53.572;10.174;2023-08-06T10:16:51;19.30;83.70
3298;DHT22;1661;53.572;10.174;2023-08-06T10:19:18;19.30;84.00
3298;DHT22;1661;53.572;10.174;2023-08-06T10:22:10;19.30;84.20
3298;DHT22;1661;53.572;10.174;2023-08-06T10:24:51;19.20;84.40
3298;DHT22;1661;53.572;10.174;2023-08-06T10:27:22;19.20;84.70
3298;DHT22;1661;53.572;10.174;2023-08-06T10:29:55;19.20;84.70
3298;DHT22;1661;53.572;10.174;2023-08-06T10:32:46;19.20;85.00
3298;DHT22;1661;53.572;10.174;2023-08-06T10:35:28;19.20;85.10
3298;DHT22;1661;53.572;10.174;2023-08-06T10:37:58;19.10;85.30
3298;DHT22;1661;53.572;10.174;2023-08-06T10:40:25;19.20;85.40
3298;DHT22;1661;53.572;10.174;2023-08-06T10:42:52;19.20;85.80
3298;DHT22;1661;53.572;10.174;2023-08-06T10:45:21;19.20;85.80
3298;DHT22;1661;53.572;10.174;2023-08-06T10:47:49;19.20;86.20
3298;DHT22;1661;53.572;10.174;2023-08-06T10:50:17;19.20;86.10
3298;DHT22;1661;53.572;10.174;2023-08-06T10:52:44;19.20;85.90
3298;DHT22;1661;53.572;10.174;2023-08-06T10:55:10;19.10;86.00
3298;DHT22;1661;53.572;10.174;2023-08-06T10:57:37;19.10;86.10
3298;DHT22;1661;53.572;10.174;2023-08-06T11:00:06;19.10;86.00
3298;DHT22;1661;53.572;10.174;2023-08-06T11:02:36;19.00;86.60
3298;DHT22;1661;53.572;10.174;2023-08-06T11:05:07;19.00;86.90
3298;DHT22;1661;53.572;10.174;2023-08-06T11:07:34;19.00;87.00
3298;DHT22;1661;53.572;10.174;2023-08-06T11:10:02;19.00;86.70
3298;DHT22;1661;53.572;10.174;2023-08-06T11:12:29;19.00;87.00
3298;DHT22;1661;53.572;10.174;2023-08-06T11:14:57;19.10;86.90
3298;DHT22;1661;53.572;10.174;2023-08-06T11:17:24;19.00;86.70
3298;DHT22;1661;53.572;10.174;2023-08-06T11:19:52;18.90;87.30
3298;DHT22;1661;53.572;10.174;2023-08-06T11:22:20;19.00;87.70
3298;DHT22;1661;53.572;10.174;2023-08-06T11:24:47;19.00;88.00
3298;DHT22;1661;53.572;10.174;2023-08-06T11:27:15;19.00;87.90
3298;DHT22;1661;53.572;10.174;2023-08-06T11:29:42;19.10;88.20
3298;DHT22;1661;53.572;10.174;2023-08-06T11:32:10;19.10;88.00
3298;DHT22;1661;53.572;10.174;2023-08-06T11:34:37;19.10;87.60
3298;DHT22;1661;53.572;10.174;2023-08-06T11:37:06;19.10;87.40
3298;DHT22;1661;53.572;10.174;2023-08-06T11:39:33;19.20;87.40
3298;DHT22;1661;53.572;10.174;2023-08-06T11:42:00;19.20;87.40
3298;DHT22;1661;53.572;10.174;2023-08-06T11:44:30;19.30;87.50
3298;DHT22;1661;53.572;10.174;2023-08-06T11:46:59;19.30;87.30
3298;DHT22;1661;53.572;10.174;2023-08-06T11:49:40;19.40;87.30
3298;DHT22;1661;53.572;10.174;2023-08-06T11:52:14;19.40;87.20
3298;DHT22;1661;53.572;10.174;2023-08-06T11:54:41;19.40;86.90
3298;DHT22;1661;53.572;10.174;2023-08-06T11:57:09;19.40;86.70
3298;DHT22;1661;53.572;10.174;2023-08-06T11:59:37;19.40;86.50
3298;DHT22;1661;53.572;10.174;2023-08-06T12:02:05;19.40;86.60
3298;DHT22;1661;53.572;10.174;2023-08-06T12:04:57;19.40;86.60
3298;DHT22;1661;53.572;10.174;2023-08-06T12:07:30;19.50;86.80
3298;DHT22;1661;53.572;10.174;2023-08-06T12:09:57;19.50;86.70
3298;DHT22;1661;53.572;10.174;2023-08-06T12:12:24;19.50;86.80
3298;DHT22;1661;53.572;10.174;2023-08-06T12:14:51;19.40;87.00
3298;DHT22;1661;53.572;10.174;2023-08-06T12:17:18;19.40;87.20
3298;DHT22;1661;53.572;10.174;2023-08-06T12:19:45;19.30;87.20
3298;DHT22;1661;53.572;10.174;2023-08-06T12:22:13;19.30;87.60
3298;DHT22;1661;53.572;10.174;2023-08-06T12:24:41;19.40;87.60
3298;DHT22;1661;53.572;10.174;2023-08-06T12:27:08;19.50;86.70
3298;DHT22;1661;53.572;10.174;2023-08-06T12:29:35;19.50;86.70
3298;DHT22;1661;53.572;10.174;2023-08-06T12:32:02;19.60;86.60
3298;DHT22;1661;53.572;10.174;2023-08-06T12:34:29;19.40;86.10
3298;DHT22;1661;53.572;10.174;2023-08-06T12:36:56;19.50;86.50
3298;DHT22;1661;53.572;10.174;2023-08-06T12:39:23;19.60;86.90
3298;DHT22;1661;53.572;10.174;2023-08-06T12:41:51;19.50;85.80
3298;DHT22;1661;53.572;10.174;2023-08-06T12:44:18;19.50;85.80
3298;DHT22;1661;53.572;10.174;2023-08-06T12:46:44;19.60;86.00
3298;DHT22;1661;53.572;10.174;2023-08-06T12:49:11;19.70;86.30
3298;DHT22;1661;53.572;10.174;2023-08-06T12:51:38;19.70;86.10
3298;DHT22;1661;53.572;10.174;2023-08-06T12:54:05;19.80;86.30
3298;DHT22;1661;53.572;10.174;2023-08-06T12:56:31;19.90;86.30
3298;DHT22;1661;53.572;10.174;2023-08-06T12:58:59;20.00;85.90
3298;DHT22;1661;53.572;10.174;2023-08-06T13:01:26;20.00;85.50
3298;DHT22;1661;53.572;10.174;2023-08-06T13:03:53;20.10;85.30
3298;DHT22;1661;53.572;10.174;2023-08-06T13:06:20;20.10;85.20
3298;DHT22;1661;53.572;10.174;2023-08-06T13:08:47;20.20;85.30
3298;DHT22;1661;53.572;10.174;2023-08-06T13:11:13;20.20;85.40
3298;DHT22;1661;53.572;10.174;2023-08-06T13:13:40;20.30;85.40
3298;DHT22;1661;53.572;10.174;2023-08-06T13:16:08;20.40;85.00
3298;DHT22;1661;53.572;10.174;2023-08-06T13:18:35;20.50;84.70
3298;DHT22;1661;53.572;10.174;2023-08-06T13:21:02;20.50;84.10
3298;DHT22;1661;53.572;10.174;2023-08-06T13:23:29;20.50;84.10
3298;DHT22;1661;53.572;10.174;2023-08-06T13:25:56;20.60;84.00
3298;DHT22;1661;53.572;10.174;2023-08-06T13:28:24;20.70;84.30
3298;DHT22;1661;53.572;10.174;2023-08-06T13:30:50;20.80;84.70
3298;DHT22;1661;53.572;10.174;2023-08-06T13:33:18;20.90;84.70
3298;DHT22;1661;53.572;10.174;2023-08-06T13:35:45;20.90;83.40
3298;DHT22;1661;53.572;10.174;2023-08-06T13:38:12;20.90;83.50
3298;DHT22;1661;53.572;10.174;2023-08-06T13:40:39;21.00;83.50
3298;DHT22;1661;53.572;10.174;2023-08-06T13:43:06;21.00;83.90
3298;DHT22;1661;53.572;10.174;2023-08-06T13:45:33;20.90;83.20
3298;DHT22;1661;53.572;10.174;2023-08-06T13:48:00;21.00;84.00
3298;DHT22;1661;53.572;10.174;2023-08-06T13:50:29;21.10;83.90
3298;DHT22;1661;53.572;10.174;2023-08-06T13:52:56;21.20;83.60
3298;DHT22;1661;53.572;10.174;2023-08-06T13:55:22;21.20;82.50
3298;DHT22;1661;53.572;10.174;2023-08-06T13:57:49;21.30;83.00
3298;DHT22;1661;53.572;10.174;2023-08-06T14:00:16;21.30;82.60
3298;DHT22;1661;53.572;10.174;2023-08-06T14:02:43;21.20;82.60
3298;DHT22;1661;53.572;10.174;2023-08-06T14:05:10;21.20;82.90
3298;DHT22;1661;53.572;10.174;2023-08-06T14:07:39;21.20;82.30
3298;DHT22;1661;53.572;10.174;2023-08-06T14:10:06;21.20;82.00
3298;DHT22;1661;53.572;10.174;2023-08-06T14:12:34;21.10;82.60
3298;DHT22;1661;53.572;10.174;2023-08-06T14:15:01;21.00;82.90
3298;DHT22;1661;53.572;10.174;2023-08-06T14:17:28;21.00;83.30
3298;DHT22;1661;53.572;10.174;2023-08-06T14:19:55;21.10;82.70
3298;DHT22;1661;53.572;10.174;2023-08-06T14:22:22;21.10;82.90
3298;DHT22;1661;53.572;10.174;2023-08-06T14:24:50;21.10;83.20
3298;DHT22;1661;53.572;10.174;2023-08-06T14:27:17;21.10;82.60
3298;DHT22;1661;53.572;10.174;2023-08-06T14:29:44;21.10;81.80
3298;DHT22;1661;53.572;10.174;2023-08-06T14:32:11;21.10;82.60
3298;DHT22;1661;53.572;10.174;2023-08-06T14:34:38;21.00;82.70
3298;DHT22;1661;53.572;10.174;2023-08-06T14:37:04;21.10;82.90
3298;DHT22;1661;53.572;10.174;2023-08-06T14:39:31;21.10;82.50
3298;DHT22;1661;53.572;10.174;2023-08-06T14:41:59;21.00;81.80
3298;DHT22;1661;53.572;10.174;2023-08-06T14:44:26;21.10;81.00
3298;DHT22;1661;53.572;10.174;2023-08-06T14:46:53;21.00;80.50
3298;DHT22;1661;53.572;10.174;2023-08-06T14:49:20;20.90;80.60
3298;DHT22;1661;53.572;10.174;2023-08-06T14:51:46;20.90;80.60
3298;DHT22;1661;53.572;10.174;2023-08-06T14:54:13;20.90;80.10
3298;DHT22;1661;53.572;10.174;2023-08-06T14:56:40;20.70;78.50
3298;DHT22;1661;53.572;10.174;2023-08-06T14:59:11;20.60;78.80
3298;DHT22;1661;53.572;10.174;2023-08-06T15:01:38;20.40;79.60
3298;DHT22;1661;53.572;10.174;2023-08-06T15:04:05;20.30;80.00
3298;DHT22;1661;53.572;10.174;2023-08-06T15:06:32;20.30;80.50
3298;DHT22;1661;53.572;10.174;2023-08-06T15:09:02;20.20;80.40
3298;DHT22;1661;53.572;10.174;2023-08-06T15:11:29;20.10;81.00
3298;DHT22;1661;53.572;10.174;2023-08-06T15:13:56;20.00;80.80
3298;DHT22;1661;53.572;10.174;2023-08-06T15:16:24;19.90;80.80
3298;DHT22;1661;53.572;10.174;2023-08-06T15:18:52;19.90;81.20
3298;DHT22;1661;53.572;10.174;2023-08-06T15:21:19;19.90;81.20
3298;DHT22;1661;53.572;10.174;2023-08-06T15:23:45;20.00;81.10
3298;DHT22;1661;53.572;10.174;2023-08-06T15:26:12;20.00;81.30
3298;DHT22;1661;53.572;10.174;2023-08-06T15:28:39;20.10;81.50
3298;DHT22;1661;53.572;10.174;2023-08-06T15:31:06;20.00;80.50
3298;DHT22;1661;53.572;10.174;2023-08-06T15:33:35;20.00;80.90
3298;DHT22;1661;53.572;10.174;2023-08-06T15:36:02;20.10;81.40
3298;DHT22;1661;53.572;10.174;2023-08-06T15:38:30;20.20;81.50
3298;DHT22;1661;53.572;10.174;2023-08-06T15:40:57;20.30;81.50
3298;DHT22;1661;53.572;10.174;2023-08-06T15:43:24;20.40;80.90
3298;DHT22;1661;53.572;10.174;2023-08-06T15:45:51;20.50;81.00
3298;DHT22;1661;53.572;10.174;2023-08-06T15:48:18;20.60;80.80